Aeroporto :
LOGIN :

Iscrizione | Disclaimer

   EN    FR    IT 

 










Sommario :    VFR   VFR Marginale   IFR   IFR Intensivo   IFR Molto Intensivo
Visibilità : 
Base nubi : 
>= 8 km
>= 3000ft
5 / 8 km
1000 / 3000 ft
1500m / 5 km
500 / 1000 ft
800 / 1500m
200 / 500 ft
< 800m
< 200 ft
Simboli :   Temporali  Nebbia  Neve Forte  Precipitazioni Forti  Vento > 20 kt
SIGMETs :   Varie  Temporali  Ghiacco  Turbolenza  Onda orograficha  Ceneri Vulcaniche







- Altitudine del aeroporto : 357 ft
- Codice IATA : TUF
- Carte del aeroporto


LFOT - Tours

ULTIMO METAR :
  • 191430Z AUTO 32006KT 280V360 7000 FEW017 BKN037 OVC044 15/11 Q1008 TEMPO 2500 -TSRA SCT014 BKN020CB

METARs OBSOLETI :
  • 191400Z AUTO 31007KT 280V340 7000 FEW018 SCT023 BKN035 15/11 Q1008 TEMPO 2500 -TSRA SCT014 BKN020CB
  • 191330Z AUTO 29006KT 260V320 7000 FEW018 BKN027 BKN032 15/11 Q1008 TEMPO 2500 -TSRA SCT014 BKN020CB
  • 191300Z AUTO 29007KT 260V330 7000 FEW018 SCT024 OVC033 15/12 Q1008 TEMPO 2500 -TSRA SCT014 BKN020CB
  • 191230Z AUTO 29006KT 260V330 7000 FEW018 OVC026 15/11 Q1008 TEMPO 2500 -TSRA SCT014 BKN020CB
  • 191200Z AUTO 32007KT 270V010 7000 SCT018 OVC025 16/12 Q1008 TEMPO 4000 SHRA SCT025TCU

TAF TAF LFOT
Valido dal 19 a 12 ore il 20 a 12 ore UTC


191100Z 1912/2012 29007KT 9999 BKN020
PROB40
TEMPO 1912/1919 4000 SHRA SCT025TCU
PROB30
TEMPO 1914/1918 29010G20KT 2500 -TSRA SCT014 BKN020CB
PROB30
TEMPO 2002/2008 BKN007
TEMPO 2010/2012 29010G20KT 4000 SHRA SCT025TCU
Nessun NOTAM noto per questo aeroporto.
1 SIGMET conosciuto per la FIR Paris (LFFF) :
 
Temporali affogati
LFFF SIGMET 4 VALID 191400/191600 LFPW
LFFF PARIS FIR/UIR EMBD TS OBS WI N4830 E00430 - N4815 E00400 - N4815 E00300 - N4830 E00200 - N4845 E00215 - N4830 E00300 - N4830 E00345 - N4845 E00415 - N4830 E00430 TOP FL330 MOV S 10KT NC=



MetMap, La meteo Aeronautica in un colpo d'occhio ! - Copyright ORBIFLY Dicembre 2007 - Disclaimer

ORBIFLY MET'MAP TEAM :

Programmazione e sviluppo : Alexandra Zaïnal
Concezione e sviluppo : Baudouin d'Aumeries
Co-Programmazione e sviluppo : Marc-Olivier Méhu
Supporto tecnico e logistico : Manuel Goepfert
Aiuto per la traduzione : Arnaldo La Scala

Contatto : metmap@orbifly.com




FONTI E CREDITI :

   NOAA